sensor_id;sensor_type;location;lat;lon;timestamp;P1;durP1;ratioP1;P2;durP2;ratioP2
58384;SDS011;44185;47.844;8.966;2022-09-29T00:01:17;3.40;;;2.45;;
58384;SDS011;44185;47.844;8.966;2022-09-29T00:03:43;5.53;;;2.33;;
58384;SDS011;44185;47.844;8.966;2022-09-29T00:06:12;3.22;;;2.40;;
58384;SDS011;44185;47.844;8.966;2022-09-29T00:08:39;3.97;;;2.33;;
58384;SDS011;44185;47.844;8.966;2022-09-29T00:11:07;3.63;;;2.25;;
58384;SDS011;44185;47.844;8.966;2022-09-29T00:13:33;3.00;;;2.17;;
58384;SDS011;44185;47.844;8.966;2022-09-29T00:15:59;3.93;;;2.70;;
58384;SDS011;44185;47.844;8.966;2022-09-29T00:18:26;3.22;;;2.17;;
58384;SDS011;44185;47.844;8.966;2022-09-29T00:20:55;3.97;;;2.50;;
58384;SDS011;44185;47.844;8.966;2022-09-29T00:23:22;5.20;;;2.83;;
58384;SDS011;44185;47.844;8.966;2022-09-29T00:25:47;2.60;;;2.00;;
58384;SDS011;44185;47.844;8.966;2022-09-29T00:28:14;4.40;;;2.35;;
58384;SDS011;44185;47.844;8.966;2022-09-29T00:30:40;3.80;;;2.30;;
58384;SDS011;44185;47.844;8.966;2022-09-29T00:33:05;3.83;;;2.50;;
58384;SDS011;44185;47.844;8.966;2022-09-29T00:35:30;4.32;;;2.67;;
58384;SDS011;44185;47.844;8.966;2022-09-29T00:37:56;4.07;;;2.47;;
58384;SDS011;44185;47.844;8.966;2022-09-29T00:40:22;4.40;;;2.88;;
58384;SDS011;44185;47.844;8.966;2022-09-29T00:42:47;5.32;;;2.78;;
58384;SDS011;44185;47.844;8.966;2022-09-29T00:45:17;2.58;;;2.10;;
58384;SDS011;44185;47.844;8.966;2022-09-29T00:47:46;6.00;;;2.88;;
58384;SDS011;44185;47.844;8.966;2022-09-29T00:50:20;6.03;;;2.70;;
58384;SDS011;44185;47.844;8.966;2022-09-29T00:52:50;3.55;;;2.30;;
58384;SDS011;44185;47.844;8.966;2022-09-29T00:57:49;4.57;;;2.40;;
58384;SDS011;44185;47.844;8.966;2022-09-29T01:00:19;5.18;;;2.80;;
58384;SDS011;44185;47.844;8.966;2022-09-29T01:02:46;4.53;;;2.30;;
58384;SDS011;44185;47.844;8.966;2022-09-29T01:05:16;4.43;;;2.10;;
58384;SDS011;44185;47.844;8.966;2022-09-29T01:07:45;4.70;;;2.47;;
58384;SDS011;44185;47.844;8.966;2022-09-29T01:10:12;3.65;;;2.15;;
58384;SDS011;44185;47.844;8.966;2022-09-29T01:12:39;5.15;;;2.50;;
58384;SDS011;44185;47.844;8.966;2022-09-29T01:15:05;4.00;;;2.35;;
58384;SDS011;44185;47.844;8.966;2022-09-29T01:17:33;3.95;;;2.38;;
58384;SDS011;44185;47.844;8.966;2022-09-29T01:20:00;3.50;;;2.53;;
58384;SDS011;44185;47.844;8.966;2022-09-29T01:22:40;4.90;;;2.67;;
58384;SDS011;44185;47.844;8.966;2022-09-29T01:25:35;4.60;;;2.33;;
58384;SDS011;44185;47.844;8.966;2022-09-29T01:28:22;6.07;;;2.40;;
58384;SDS011;44185;47.844;8.966;2022-09-29T01:31:13;4.40;;;2.30;;
58384;SDS011;44185;47.844;8.966;2022-09-29T01:33:45;3.60;;;2.45;;
58384;SDS011;44185;47.844;8.966;2022-09-29T01:36:21;3.70;;;2.40;;
58384;SDS011;44185;47.844;8.966;2022-09-29T01:38:56;5.25;;;2.20;;
58384;SDS011;44185;47.844;8.966;2022-09-29T01:41:29;4.28;;;2.35;;
58384;SDS011;44185;47.844;8.966;2022-09-29T01:44:02;4.03;;;2.40;;
58384;SDS011;44185;47.844;8.966;2022-09-29T01:46:32;5.45;;;2.47;;
58384;SDS011;44185;47.844;8.966;2022-09-29T01:49:01;6.03;;;2.80;;
58384;SDS011;44185;47.844;8.966;2022-09-29T01:51:29;6.50;;;2.67;;
58384;SDS011;44185;47.844;8.966;2022-09-29T01:54:02;3.63;;;2.70;;
58384;SDS011;44185;47.844;8.966;2022-09-29T01:56:34;3.65;;;2.55;;
58384;SDS011;44185;47.844;8.966;2022-09-29T01:59:03;5.07;;;2.67;;
58384;SDS011;44185;47.844;8.966;2022-09-29T02:01:37;4.20;;;2.60;;
58384;SDS011;44185;47.844;8.966;2022-09-29T02:04:06;6.85;;;2.40;;
58384;SDS011;44185;47.844;8.966;2022-09-29T02:06:43;6.95;;;2.65;;
58384;SDS011;44185;47.844;8.966;2022-09-29T02:09:15;6.82;;;2.97;;
58384;SDS011;44185;47.844;8.966;2022-09-29T02:11:47;4.45;;;2.65;;
58384;SDS011;44185;47.844;8.966;2022-09-29T02:14:17;6.28;;;3.05;;
58384;SDS011;44185;47.844;8.966;2022-09-29T02:16:47;4.18;;;2.65;;
58384;SDS011;44185;47.844;8.966;2022-09-29T02:19:20;4.88;;;2.50;;
58384;SDS011;44185;47.844;8.966;2022-09-29T02:21:48;3.33;;;2.33;;
58384;SDS011;44185;47.844;8.966;2022-09-29T02:24:14;4.40;;;2.80;;
58384;SDS011;44185;47.844;8.966;2022-09-29T02:26:40;4.65;;;2.10;;
58384;SDS011;44185;47.844;8.966;2022-09-29T02:29:05;4.18;;;2.30;;
58384;SDS011;44185;47.844;8.966;2022-09-29T02:31:33;3.25;;;1.90;;
58384;SDS011;44185;47.844;8.966;2022-09-29T02:34:01;2.95;;;1.83;;
58384;SDS011;44185;47.844;8.966;2022-09-29T02:36:30;3.40;;;2.20;;
58384;SDS011;44185;47.844;8.966;2022-09-29T02:39:04;3.95;;;2.20;;
58384;SDS011;44185;47.844;8.966;2022-09-29T02:41:40;2.28;;;1.77;;
58384;SDS011;44185;47.844;8.966;2022-09-29T02:44:19;4.95;;;2.20;;
58384;SDS011;44185;47.844;8.966;2022-09-29T02:47:01;5.18;;;1.95;;
58384;SDS011;44185;47.844;8.966;2022-09-29T02:49:54;3.03;;;2.00;;
58384;SDS011;44185;47.844;8.966;2022-09-29T02:52:33;3.05;;;1.95;;
58384;SDS011;44185;47.844;8.966;2022-09-29T02:55:12;3.70;;;2.50;;
58384;SDS011;44185;47.844;8.966;2022-09-29T02:57:44;3.20;;;2.00;;
58384;SDS011;44185;47.844;8.966;2022-09-29T03:00:15;4.57;;;2.03;;
58384;SDS011;44185;47.844;8.966;2022-09-29T03:02:42;5.65;;;2.28;;
58384;SDS011;44185;47.844;8.966;2022-09-29T03:05:10;4.40;;;2.38;;
58384;SDS011;44185;47.844;8.966;2022-09-29T03:07:38;3.78;;;1.95;;
58384;SDS011;44185;47.844;8.966;2022-09-29T03:10:04;3.47;;;2.17;;
58384;SDS011;44185;47.844;8.966;2022-09-29T03:12:31;4.80;;;2.22;;
58384;SDS011;44185;47.844;8.966;2022-09-29T03:14:56;4.00;;;2.13;;
58384;SDS011;44185;47.844;8.966;2022-09-29T03:17:22;5.72;;;2.15;;
58384;SDS011;44185;47.844;8.966;2022-09-29T03:19:47;4.38;;;2.22;;
58384;SDS011;44185;47.844;8.966;2022-09-29T03:22:14;8.15;;;2.55;;
58384;SDS011;44185;47.844;8.966;2022-09-29T03:24:40;4.57;;;2.38;;
58384;SDS011;44185;47.844;8.966;2022-09-29T03:27:05;7.03;;;2.95;;
58384;SDS011;44185;47.844;8.966;2022-09-29T03:29:31;8.45;;;3.85;;
58384;SDS011;44185;47.844;8.966;2022-09-29T03:31:57;11.10;;;5.15;;
58384;SDS011;44185;47.844;8.966;2022-09-29T03:34:22;12.48;;;4.97;;
58384;SDS011;44185;47.844;8.966;2022-09-29T03:36:48;13.57;;;5.55;;
58384;SDS011;44185;47.844;8.966;2022-09-29T03:39:15;14.90;;;6.05;;
58384;SDS011;44185;47.844;8.966;2022-09-29T03:41:40;12.70;;;5.57;;
58384;SDS011;44185;47.844;8.966;2022-09-29T03:44:06;12.57;;;5.97;;
58384;SDS011;44185;47.844;8.966;2022-09-29T03:46:31;12.85;;;5.07;;
58384;SDS011;44185;47.844;8.966;2022-09-29T03:48:57;13.95;;;5.90;;
58384;SDS011;44185;47.844;8.966;2022-09-29T03:51:22;15.43;;;6.03;;
58384;SDS011;44185;47.844;8.966;2022-09-29T03:53:47;15.55;;;5.95;;
58384;SDS011;44185;47.844;8.966;2022-09-29T03:56:14;12.20;;;5.32;;
58384;SDS011;44185;47.844;8.966;2022-09-29T03:58:40;12.00;;;5.03;;
58384;SDS011;44185;47.844;8.966;2022-09-29T04:01:05;12.00;;;5.63;;
58384;SDS011;44185;47.844;8.966;2022-09-29T04:03:31;11.25;;;4.75;;
58384;SDS011;44185;47.844;8.966;2022-09-29T04:05:57;9.77;;;4.80;;
58384;SDS011;44185;47.844;8.966;2022-09-29T04:08:22;11.33;;;4.63;;
58384;SDS011;44185;47.844;8.966;2022-09-29T04:10:48;8.80;;;4.60;;
58384;SDS011;44185;47.844;8.966;2022-09-29T04:13:15;12.35;;;4.63;;
58384;SDS011;44185;47.844;8.966;2022-09-29T04:15:40;11.25;;;4.85;;
58384;SDS011;44185;47.844;8.966;2022-09-29T04:18:06;13.70;;;5.65;;
58384;SDS011;44185;47.844;8.966;2022-09-29T04:20:31;13.00;;;5.40;;
58384;SDS011;44185;47.844;8.966;2022-09-29T04:22:57;11.77;;;4.63;;
58384;SDS011;44185;47.844;8.966;2022-09-29T04:25:23;10.63;;;4.47;;
58384;SDS011;44185;47.844;8.966;2022-09-29T04:27:48;11.85;;;4.60;;
58384;SDS011;44185;47.844;8.966;2022-09-29T04:30:15;6.90;;;4.35;;
58384;SDS011;44185;47.844;8.966;2022-09-29T04:32:41;10.95;;;4.78;;
58384;SDS011;44185;47.844;8.966;2022-09-29T04:35:07;10.45;;;4.30;;
58384;SDS011;44185;47.844;8.966;2022-09-29T04:37:33;10.43;;;4.65;;
58384;SDS011;44185;47.844;8.966;2022-09-29T04:39:58;10.15;;;4.95;;
58384;SDS011;44185;47.844;8.966;2022-09-29T04:42:24;10.35;;;5.07;;
58384;SDS011;44185;47.844;8.966;2022-09-29T04:44:49;12.30;;;5.25;;
58384;SDS011;44185;47.844;8.966;2022-09-29T04:47:16;11.98;;;5.38;;
58384;SDS011;44185;47.844;8.966;2022-09-29T04:49:42;11.93;;;4.97;;
58384;SDS011;44185;47.844;8.966;2022-09-29T04:52:08;11.75;;;5.00;;
58384;SDS011;44185;47.844;8.966;2022-09-29T04:54:35;11.48;;;5.13;;
58384;SDS011;44185;47.844;8.966;2022-09-29T04:57:00;9.65;;;4.47;;
58384;SDS011;44185;47.844;8.966;2022-09-29T04:59:26;9.35;;;4.32;;
58384;SDS011;44185;47.844;8.966;2022-09-29T05:01:52;10.43;;;4.60;;
58384;SDS011;44185;47.844;8.966;2022-09-29T05:04:19;10.05;;;4.30;;
58384;SDS011;44185;47.844;8.966;2022-09-29T05:06:45;10.73;;;4.63;;
58384;SDS011;44185;47.844;8.966;2022-09-29T05:09:10;9.07;;;4.63;;
58384;SDS011;44185;47.844;8.966;2022-09-29T05:11:36;9.52;;;4.80;;
58384;SDS011;44185;47.844;8.966;2022-09-29T05:14:01;12.13;;;5.22;;
58384;SDS011;44185;47.844;8.966;2022-09-29T05:16:27;14.75;;;6.15;;
58384;SDS011;44185;47.844;8.966;2022-09-29T05:18:53;18.13;;;6.40;;
58384;SDS011;44185;47.844;8.966;2022-09-29T05:21:19;17.15;;;7.70;;
58384;SDS011;44185;47.844;8.966;2022-09-29T05:23:45;22.23;;;8.63;;
58384;SDS011;44185;47.844;8.966;2022-09-29T05:26:11;21.95;;;9.68;;
58384;SDS011;44185;47.844;8.966;2022-09-29T05:28:37;21.35;;;9.20;;
58384;SDS011;44185;47.844;8.966;2022-09-29T05:31:07;25.02;;;10.43;;
58384;SDS011;44185;47.844;8.966;2022-09-29T05:33:33;24.65;;;9.73;;
58384;SDS011;44185;47.844;8.966;2022-09-29T05:36:00;23.38;;;9.38;;
58384;SDS011;44185;47.844;8.966;2022-09-29T05:38:29;22.52;;;9.13;;
58384;SDS011;44185;47.844;8.966;2022-09-29T05:40:54;23.08;;;8.77;;
58384;SDS011;44185;47.844;8.966;2022-09-29T05:43:20;19.42;;;7.70;;
58384;SDS011;44185;47.844;8.966;2022-09-29T05:45:45;19.45;;;7.60;;
58384;SDS011;44185;47.844;8.966;2022-09-29T05:48:11;19.25;;;8.20;;
58384;SDS011;44185;47.844;8.966;2022-09-29T05:50:37;18.15;;;7.85;;
58384;SDS011;44185;47.844;8.966;2022-09-29T05:53:02;17.60;;;7.78;;
58384;SDS011;44185;47.844;8.966;2022-09-29T05:55:29;19.02;;;7.65;;
58384;SDS011;44185;47.844;8.966;2022-09-29T05:57:54;19.40;;;7.28;;
58384;SDS011;44185;47.844;8.966;2022-09-29T06:00:20;18.95;;;7.05;;
58384;SDS011;44185;47.844;8.966;2022-09-29T06:02:45;15.13;;;6.93;;
58384;SDS011;44185;47.844;8.966;2022-09-29T06:05:11;20.02;;;8.60;;
58384;SDS011;44185;47.844;8.966;2022-09-29T06:07:37;22.17;;;9.55;;
58384;SDS011;44185;47.844;8.966;2022-09-29T06:10:02;21.02;;;8.70;;
58384;SDS011;44185;47.844;8.966;2022-09-29T06:12:33;18.63;;;7.75;;
58384;SDS011;44185;47.844;8.966;2022-09-29T06:14:59;17.58;;;6.90;;
58384;SDS011;44185;47.844;8.966;2022-09-29T06:17:24;20.60;;;7.45;;
58384;SDS011;44185;47.844;8.966;2022-09-29T06:19:50;19.83;;;7.40;;
58384;SDS011;44185;47.844;8.966;2022-09-29T06:22:15;17.55;;;6.97;;
58384;SDS011;44185;47.844;8.966;2022-09-29T06:24:41;18.35;;;8.07;;
58384;SDS011;44185;47.844;8.966;2022-09-29T06:27:07;21.27;;;8.20;;
58384;SDS011;44185;47.844;8.966;2022-09-29T06:29:33;20.67;;;8.18;;
58384;SDS011;44185;47.844;8.966;2022-09-29T06:31:59;20.48;;;8.13;;
58384;SDS011;44185;47.844;8.966;2022-09-29T06:34:25;17.67;;;7.03;;
58384;SDS011;44185;47.844;8.966;2022-09-29T06:36:50;19.90;;;8.15;;
58384;SDS011;44185;47.844;8.966;2022-09-29T06:39:16;19.10;;;7.63;;
58384;SDS011;44185;47.844;8.966;2022-09-29T06:41:42;20.40;;;8.90;;
58384;SDS011;44185;47.844;8.966;2022-09-29T06:44:08;20.60;;;8.10;;
58384;SDS011;44185;47.844;8.966;2022-09-29T06:46:35;20.88;;;9.32;;
58384;SDS011;44185;47.844;8.966;2022-09-29T06:49:00;19.20;;;8.57;;
58384;SDS011;44185;47.844;8.966;2022-09-29T06:51:26;21.58;;;8.45;;
58384;SDS011;44185;47.844;8.966;2022-09-29T06:53:52;20.90;;;8.82;;
58384;SDS011;44185;47.844;8.966;2022-09-29T06:56:17;17.83;;;8.18;;
58384;SDS011;44185;47.844;8.966;2022-09-29T06:58:43;19.77;;;8.95;;
58384;SDS011;44185;47.844;8.966;2022-09-29T07:01:09;18.45;;;8.52;;
58384;SDS011;44185;47.844;8.966;2022-09-29T07:03:36;20.30;;;8.52;;
58384;SDS011;44185;47.844;8.966;2022-09-29T07:06:02;20.00;;;8.48;;
58384;SDS011;44185;47.844;8.966;2022-09-29T07:08:28;19.90;;;7.88;;
58384;SDS011;44185;47.844;8.966;2022-09-29T07:10:54;19.20;;;8.38;;
58384;SDS011;44185;47.844;8.966;2022-09-29T07:13:19;17.65;;;7.90;;
58384;SDS011;44185;47.844;8.966;2022-09-29T07:15:44;20.10;;;8.35;;
58384;SDS011;44185;47.844;8.966;2022-09-29T07:18:10;20.85;;;8.88;;
58384;SDS011;44185;47.844;8.966;2022-09-29T07:20:37;21.83;;;8.70;;
58384;SDS011;44185;47.844;8.966;2022-09-29T07:23:02;21.75;;;9.15;;
58384;SDS011;44185;47.844;8.966;2022-09-29T07:25:28;19.98;;;7.95;;
58384;SDS011;44185;47.844;8.966;2022-09-29T07:27:53;19.65;;;8.20;;
58384;SDS011;44185;47.844;8.966;2022-09-29T07:30:18;21.40;;;7.53;;
58384;SDS011;44185;47.844;8.966;2022-09-29T07:32:44;19.77;;;7.88;;
58384;SDS011;44185;47.844;8.966;2022-09-29T07:35:09;18.15;;;7.78;;
58384;SDS011;44185;47.844;8.966;2022-09-29T07:37:36;18.40;;;7.50;;
58384;SDS011;44185;47.844;8.966;2022-09-29T07:40:02;17.60;;;7.25;;
58384;SDS011;44185;47.844;8.966;2022-09-29T07:42:28;20.08;;;7.60;;
58384;SDS011;44185;47.844;8.966;2022-09-29T07:44:53;16.45;;;6.38;;
58384;SDS011;44185;47.844;8.966;2022-09-29T07:47:18;16.13;;;6.90;;
58384;SDS011;44185;47.844;8.966;2022-09-29T07:49:44;19.95;;;7.38;;
58384;SDS011;44185;47.844;8.966;2022-09-29T07:52:11;16.65;;;7.10;;
58384;SDS011;44185;47.844;8.966;2022-09-29T07:54:38;18.90;;;7.82;;
58384;SDS011;44185;47.844;8.966;2022-09-29T07:57:03;19.55;;;8.55;;
58384;SDS011;44185;47.844;8.966;2022-09-29T07:59:29;18.85;;;7.45;;
58384;SDS011;44185;47.844;8.966;2022-09-29T08:01:55;17.63;;;7.22;;
58384;SDS011;44185;47.844;8.966;2022-09-29T08:04:21;20.95;;;7.68;;
58384;SDS011;44185;47.844;8.966;2022-09-29T08:06:46;19.08;;;7.85;;
58384;SDS011;44185;47.844;8.966;2022-09-29T08:09:12;17.48;;;7.55;;
58384;SDS011;44185;47.844;8.966;2022-09-29T08:11:40;16.58;;;8.00;;
58384;SDS011;44185;47.844;8.966;2022-09-29T08:14:07;16.23;;;7.10;;
58384;SDS011;44185;47.844;8.966;2022-09-29T08:16:33;17.15;;;7.03;;
58384;SDS011;44185;47.844;8.966;2022-09-29T08:19:02;21.50;;;8.52;;
58384;SDS011;44185;47.844;8.966;2022-09-29T08:21:29;19.63;;;8.52;;
58384;SDS011;44185;47.844;8.966;2022-09-29T08:23:54;23.90;;;8.70;;
58384;SDS011;44185;47.844;8.966;2022-09-29T08:26:20;27.52;;;12.52;;
58384;SDS011;44185;47.844;8.966;2022-09-29T08:28:48;29.67;;;14.45;;
58384;SDS011;44185;47.844;8.966;2022-09-29T08:31:15;33.03;;;14.82;;
58384;SDS011;44185;47.844;8.966;2022-09-29T08:33:41;34.87;;;15.23;;
58384;SDS011;44185;47.844;8.966;2022-09-29T08:36:07;34.00;;;15.57;;
58384;SDS011;44185;47.844;8.966;2022-09-29T08:38:33;37.72;;;15.25;;
58384;SDS011;44185;47.844;8.966;2022-09-29T08:41:01;37.10;;;16.92;;
58384;SDS011;44185;47.844;8.966;2022-09-29T08:45:57;41.60;;;16.92;;
58384;SDS011;44185;47.844;8.966;2022-09-29T08:48:27;35.55;;;16.50;;
58384;SDS011;44185;47.844;8.966;2022-09-29T08:50:56;45.70;;;18.57;;
58384;SDS011;44185;47.844;8.966;2022-09-29T08:53:23;42.78;;;17.85;;
58384;SDS011;44185;47.844;8.966;2022-09-29T08:55:53;48.40;;;19.55;;
58384;SDS011;44185;47.844;8.966;2022-09-29T08:58:21;42.55;;;18.80;;
58384;SDS011;44185;47.844;8.966;2022-09-29T09:00:50;46.40;;;20.02;;
58384;SDS011;44185;47.844;8.966;2022-09-29T09:03:35;47.22;;;19.73;;
58384;SDS011;44185;47.844;8.966;2022-09-29T09:06:19;45.58;;;18.77;;
58384;SDS011;44185;47.844;8.966;2022-09-29T09:11:49;45.80;;;20.17;;
58384;SDS011;44185;47.844;8.966;2022-09-29T09:14:28;38.13;;;17.77;;
58384;SDS011;44185;47.844;8.966;2022-09-29T09:17:08;36.05;;;15.05;;
58384;SDS011;44185;47.844;8.966;2022-09-29T09:19:48;36.15;;;16.40;;
58384;SDS011;44185;47.844;8.966;2022-09-29T09:22:27;42.10;;;16.48;;
58384;SDS011;44185;47.844;8.966;2022-09-29T09:25:04;44.13;;;19.25;;
58384;SDS011;44185;47.844;8.966;2022-09-29T09:27:39;40.17;;;17.90;;
58384;SDS011;44185;47.844;8.966;2022-09-29T09:30:12;35.60;;;17.02;;
58384;SDS011;44185;47.844;8.966;2022-09-29T09:32:40;39.70;;;17.40;;
58384;SDS011;44185;47.844;8.966;2022-09-29T09:35:31;36.47;;;16.60;;
58384;SDS011;44185;47.844;8.966;2022-09-29T09:38:01;33.60;;;15.13;;
58384;SDS011;44185;47.844;8.966;2022-09-29T09:40:36;31.23;;;13.40;;
58384;SDS011;44185;47.844;8.966;2022-09-29T09:43:05;29.80;;;13.43;;
58384;SDS011;44185;47.844;8.966;2022-09-29T09:45:35;25.70;;;11.32;;
58384;SDS011;44185;47.844;8.966;2022-09-29T09:48:08;26.95;;;11.88;;
58384;SDS011;44185;47.844;8.966;2022-09-29T09:50:41;23.85;;;10.55;;
58384;SDS011;44185;47.844;8.966;2022-09-29T09:53:09;21.75;;;9.25;;
58384;SDS011;44185;47.844;8.966;2022-09-29T09:55:37;17.27;;;7.72;;
58384;SDS011;44185;47.844;8.966;2022-09-29T09:58:09;19.50;;;7.97;;
58384;SDS011;44185;47.844;8.966;2022-09-29T10:00:54;18.40;;;8.03;;
58384;SDS011;44185;47.844;8.966;2022-09-29T10:03:22;22.23;;;8.45;;
58384;SDS011;44185;47.844;8.966;2022-09-29T10:05:49;16.50;;;6.93;;
58384;SDS011;44185;47.844;8.966;2022-09-29T10:08:16;15.65;;;7.05;;
58384;SDS011;44185;47.844;8.966;2022-09-29T10:10:47;17.27;;;7.28;;
58384;SDS011;44185;47.844;8.966;2022-09-29T10:13:13;16.45;;;7.07;;
58384;SDS011;44185;47.844;8.966;2022-09-29T10:15:42;15.50;;;6.77;;
58384;SDS011;44185;47.844;8.966;2022-09-29T10:18:12;15.88;;;6.85;;
58384;SDS011;44185;47.844;8.966;2022-09-29T10:20:40;15.18;;;6.47;;
58384;SDS011;44185;47.844;8.966;2022-09-29T10:23:18;14.93;;;4.47;;
58384;SDS011;44185;47.844;8.966;2022-09-29T10:25:53;8.65;;;4.43;;
58384;SDS011;44185;47.844;8.966;2022-09-29T10:28:22;9.95;;;5.03;;
58384;SDS011;44185;47.844;8.966;2022-09-29T10:30:49;10.23;;;4.38;;
58384;SDS011;44185;47.844;8.966;2022-09-29T10:33:16;10.75;;;4.32;;
58384;SDS011;44185;47.844;8.966;2022-09-29T10:35:43;15.13;;;6.45;;
58384;SDS011;44185;47.844;8.966;2022-09-29T10:38:15;13.77;;;5.50;;
58384;SDS011;44185;47.844;8.966;2022-09-29T10:40:53;14.00;;;5.53;;
58384;SDS011;44185;47.844;8.966;2022-09-29T10:43:21;16.33;;;6.22;;
58384;SDS011;44185;47.844;8.966;2022-09-29T10:45:48;11.68;;;5.03;;
58384;SDS011;44185;47.844;8.966;2022-09-29T10:48:14;10.63;;;4.75;;
58384;SDS011;44185;47.844;8.966;2022-09-29T10:50:47;8.70;;;4.10;;
58384;SDS011;44185;47.844;8.966;2022-09-29T10:53:17;8.38;;;3.80;;
58384;SDS011;44185;47.844;8.966;2022-09-29T10:55:49;6.20;;;3.70;;
58384;SDS011;44185;47.844;8.966;2022-09-29T10:58:20;11.90;;;5.28;;
58384;SDS011;44185;47.844;8.966;2022-09-29T11:00:51;10.65;;;4.75;;
58384;SDS011;44185;47.844;8.966;2022-09-29T11:03:27;11.30;;;5.10;;
58384;SDS011;44185;47.844;8.966;2022-09-29T11:05:53;11.57;;;4.55;;
58384;SDS011;44185;47.844;8.966;2022-09-29T11:08:23;6.72;;;3.50;;
58384;SDS011;44185;47.844;8.966;2022-09-29T11:10:51;7.97;;;3.95;;
58384;SDS011;44185;47.844;8.966;2022-09-29T11:13:36;9.07;;;4.82;;
58384;SDS011;44185;47.844;8.966;2022-09-29T11:16:03;9.73;;;4.60;;
58384;SDS011;44185;47.844;8.966;2022-09-29T11:18:37;8.95;;;4.13;;
58384;SDS011;44185;47.844;8.966;2022-09-29T11:21:07;7.10;;;4.03;;
58384;SDS011;44185;47.844;8.966;2022-09-29T11:23:52;8.57;;;3.95;;
58384;SDS011;44185;47.844;8.966;2022-09-29T11:26:27;8.27;;;4.45;;
58384;SDS011;44185;47.844;8.966;2022-09-29T11:29:13;7.93;;;4.60;;
58384;SDS011;44185;47.844;8.966;2022-09-29T11:31:56;7.30;;;4.40;;
58384;SDS011;44185;47.844;8.966;2022-09-29T11:34:52;11.77;;;4.93;;
58384;SDS011;44185;47.844;8.966;2022-09-29T11:37:30;8.55;;;4.28;;
58384;SDS011;44185;47.844;8.966;2022-09-29T11:40:07;8.32;;;3.80;;
58384;SDS011;44185;47.844;8.966;2022-09-29T11:42:40;7.32;;;4.03;;
58384;SDS011;44185;47.844;8.966;2022-09-29T11:45:17;9.93;;;4.22;;
58384;SDS011;44185;47.844;8.966;2022-09-29T11:47:58;7.13;;;3.50;;
58384;SDS011;44185;47.844;8.966;2022-09-29T11:50:45;7.72;;;3.42;;
58384;SDS011;44185;47.844;8.966;2022-09-29T11:53:23;5.75;;;3.30;;
58384;SDS011;44185;47.844;8.966;2022-09-29T11:56:02;4.45;;;2.33;;
58384;SDS011;44185;47.844;8.966;2022-09-29T11:58:47;5.88;;;2.97;;
58384;SDS011;44185;47.844;8.966;2022-09-29T12:01:24;5.97;;;2.60;;
58384;SDS011;44185;47.844;8.966;2022-09-29T12:03:59;7.25;;;2.67;;
58384;SDS011;44185;47.844;8.966;2022-09-29T12:06:43;5.00;;;2.72;;
58384;SDS011;44185;47.844;8.966;2022-09-29T12:09:27;6.30;;;3.20;;
58384;SDS011;44185;47.844;8.966;2022-09-29T12:12:16;5.38;;;3.28;;
58384;SDS011;44185;47.844;8.966;2022-09-29T12:14:52;6.07;;;3.13;;
58384;SDS011;44185;47.844;8.966;2022-09-29T12:17:29;5.35;;;2.90;;
58384;SDS011;44185;47.844;8.966;2022-09-29T12:20:00;3.78;;;2.70;;
58384;SDS011;44185;47.844;8.966;2022-09-29T12:22:30;4.07;;;2.10;;
58384;SDS011;44185;47.844;8.966;2022-09-29T12:24:57;4.13;;;2.17;;
58384;SDS011;44185;47.844;8.966;2022-09-29T12:27:25;2.75;;;2.47;;
58384;SDS011;44185;47.844;8.966;2022-09-29T12:29:56;1.83;;;1.73;;
58384;SDS011;44185;47.844;8.966;2022-09-29T12:32:29;1.50;;;1.40;;
58384;SDS011;44185;47.844;8.966;2022-09-29T12:35:02;4.97;;;2.00;;
58384;SDS011;44185;47.844;8.966;2022-09-29T12:37:35;3.38;;;2.00;;
58384;SDS011;44185;47.844;8.966;2022-09-29T12:40:09;2.67;;;1.92;;
58384;SDS011;44185;47.844;8.966;2022-09-29T12:42:45;2.72;;;1.70;;
58384;SDS011;44185;47.844;8.966;2022-09-29T12:45:28;2.35;;;2.15;;
58384;SDS011;44185;47.844;8.966;2022-09-29T12:48:05;2.42;;;1.88;;
58384;SDS011;44185;47.844;8.966;2022-09-29T12:50:43;2.67;;;2.10;;
58384;SDS011;44185;47.844;8.966;2022-09-29T12:53:15;2.08;;;1.67;;
58384;SDS011;44185;47.844;8.966;2022-09-29T12:55:46;2.00;;;1.80;;
58384;SDS011;44185;47.844;8.966;2022-09-29T12:58:18;2.97;;;1.48;;
58384;SDS011;44185;47.844;8.966;2022-09-29T13:00:48;1.77;;;1.42;;
58384;SDS011;44185;47.844;8.966;2022-09-29T13:03:25;2.03;;;1.33;;
58384;SDS011;44185;47.844;8.966;2022-09-29T13:09:19;2.80;;;1.60;;
58384;SDS011;44185;47.844;8.966;2022-09-29T13:12:10;1.77;;;1.45;;
58384;SDS011;44185;47.844;8.966;2022-09-29T13:14:52;1.83;;;1.17;;
58384;SDS011;44185;47.844;8.966;2022-09-29T13:17:41;1.45;;;1.35;;
58384;SDS011;44185;47.844;8.966;2022-09-29T13:20:32;1.83;;;1.65;;
58384;SDS011;44185;47.844;8.966;2022-09-29T13:23:12;1.85;;;1.20;;
58384;SDS011;44185;47.844;8.966;2022-09-29T13:25:55;1.98;;;1.25;;
58384;SDS011;44185;47.844;8.966;2022-09-29T13:28:35;1.88;;;1.30;;
58384;SDS011;44185;47.844;8.966;2022-09-29T13:31:06;1.63;;;1.35;;
58384;SDS011;44185;47.844;8.966;2022-09-29T13:33:35;1.50;;;1.10;;
58384;SDS011;44185;47.844;8.966;2022-09-29T13:36:03;1.63;;;1.10;;
58384;SDS011;44185;47.844;8.966;2022-09-29T13:38:29;2.03;;;1.30;;
58384;SDS011;44185;47.844;8.966;2022-09-29T13:41:08;1.90;;;1.40;;
58384;SDS011;44185;47.844;8.966;2022-09-29T13:43:36;1.42;;;1.02;;
58384;SDS011;44185;47.844;8.966;2022-09-29T13:46:08;1.20;;;1.10;;
58384;SDS011;44185;47.844;8.966;2022-09-29T13:48:50;0.98;;;0.95;;
58384;SDS011;44185;47.844;8.966;2022-09-29T13:51:22;2.40;;;1.30;;
58384;SDS011;44185;47.844;8.966;2022-09-29T13:59:46;1.40;;;0.75;;
58384;SDS011;44185;47.844;8.966;2022-09-29T14:02:26;0.77;;;0.77;;
58384;SDS011;44185;47.844;8.966;2022-09-29T14:04:56;1.40;;;0.98;;
58384;SDS011;44185;47.844;8.966;2022-09-29T14:07:36;1.25;;;0.63;;
58384;SDS011;44185;47.844;8.966;2022-09-29T14:10:20;0.90;;;0.90;;
58384;SDS011;44185;47.844;8.966;2022-09-29T14:12:50;1.15;;;0.60;;
58384;SDS011;44185;47.844;8.966;2022-09-29T14:15:21;1.13;;;1.00;;
58384;SDS011;44185;47.844;8.966;2022-09-29T14:17:49;1.83;;;0.70;;
58384;SDS011;44185;47.844;8.966;2022-09-29T14:20:19;1.58;;;1.30;;
58384;SDS011;44185;47.844;8.966;2022-09-29T14:22:54;1.07;;;0.83;;
58384;SDS011;44185;47.844;8.966;2022-09-29T14:25:29;3.47;;;1.10;;
58384;SDS011;44185;47.844;8.966;2022-09-29T14:28:13;1.40;;;1.02;;
58384;SDS011;44185;47.844;8.966;2022-09-29T14:30:45;1.05;;;0.90;;
58384;SDS011;44185;47.844;8.966;2022-09-29T14:33:15;1.23;;;0.90;;
58384;SDS011;44185;47.844;8.966;2022-09-29T14:35:46;1.23;;;1.00;;
58384;SDS011;44185;47.844;8.966;2022-09-29T14:38:21;0.82;;;0.82;;
58384;SDS011;44185;47.844;8.966;2022-09-29T14:40:54;2.80;;;1.30;;
58384;SDS011;44185;47.844;8.966;2022-09-29T14:43:22;1.13;;;0.95;;
58384;SDS011;44185;47.844;8.966;2022-09-29T14:48:47;1.45;;;1.35;;
58384;SDS011;44185;47.844;8.966;2022-09-29T14:51:25;1.42;;;1.27;;
58384;SDS011;44185;47.844;8.966;2022-09-29T14:53:59;1.30;;;1.13;;
58384;SDS011;44185;47.844;8.966;2022-09-29T14:56:37;2.25;;;1.73;;
58384;SDS011;44185;47.844;8.966;2022-09-29T14:59:14;1.90;;;0.93;;
58384;SDS011;44185;47.844;8.966;2022-09-29T15:01:57;1.60;;;0.95;;
58384;SDS011;44185;47.844;8.966;2022-09-29T15:04:37;0.85;;;0.80;;
58384;SDS011;44185;47.844;8.966;2022-09-29T15:07:03;1.65;;;1.10;;
58384;SDS011;44185;47.844;8.966;2022-09-29T15:09:35;1.77;;;1.10;;
58384;SDS011;44185;47.844;8.966;2022-09-29T15:12:12;1.05;;;0.70;;
58384;SDS011;44185;47.844;8.966;2022-09-29T15:14:39;2.67;;;1.20;;
58384;SDS011;44185;47.844;8.966;2022-09-29T15:17:06;2.30;;;1.10;;
58384;SDS011;44185;47.844;8.966;2022-09-29T15:19:43;1.25;;;1.15;;